Time;durP1;ratioP1;P1;durP2;ratioP2;P2;SDS_P1;SDS_P2;PMS_P1;PMS_P2;Temp;Humidity;BMP_temperature;BMP_pressure;BME280_temperature;BME280_humidity;BME280_pressure;Samples;Min_cycle;Max_cycle;Signal;HPM_P1;HPM_P2
2022/10/30 00:00:42;;;;;;;0.00;0.00;;;;;;;;;;1741505;28;20286;-72
2022/10/30 00:01:33;;;;;;;0.00;0.00;;;;;;;;;;1740801;28;20756;-72
2022/10/30 00:02:25;;;;;;;0.00;0.00;;;;;;;;;;1740340;28;20207;-72
2022/10/30 00:03:17;;;;;;;0.00;0.00;;;;;;;;;;1740537;28;20230;-72
2022/10/30 00:04:09;;;;;;;0.00;0.00;;;;;;;;;;1740468;28;20269;-72
2022/10/30 00:05:04;;;;;;;0.00;0.00;;;;;;;;;;1740680;28;20211;-72
2022/10/30 00:05:56;;;;;;;0.00;0.00;;;;;;;;;;1740928;28;20206;-72
2022/10/30 00:06:47;;;;;;;0.00;0.00;;;;;;;;;;1740685;28;20663;-72
2022/10/30 00:07:39;;;;;;;0.00;0.00;;;;;;;;;;1741054;28;20229;-72
2022/10/30 00:08:31;;;;;;;0.00;0.00;;;;;;;;;;1740377;28;20299;-72
2022/10/30 00:09:23;;;;;;;0.00;0.00;;;;;;;;;;1740440;28;20203;-72
2022/10/30 00:10:14;;;;;;;0.00;0.00;;;;;;;;;;1740908;28;20230;-71
2022/10/30 00:11:07;;;;;;;0.00;0.00;;;;;;;;;;1740787;28;20199;-72
2022/10/30 00:11:58;;;;;;;0.00;0.00;;;;;;;;;;1740574;28;20235;-72
2022/10/30 00:12:50;;;;;;;0.00;0.00;;;;;;;;;;1740620;28;20241;-72
2022/10/30 00:13:42;;;;;;;0.00;0.00;;;;;;;;;;1740831;28;20231;-72
2022/10/30 00:14:34;;;;;;;0.00;0.00;;;;;;;;;;1740279;28;20896;-72
2022/10/30 00:15:25;;;;;;;0.00;0.00;;;;;;;;;;1741211;28;21043;-72
2022/10/30 00:16:17;;;;;;;0.00;0.00;;;;;;;;;;1740619;28;20245;-71
2022/10/30 00:17:08;;;;;;;0.00;0.00;;;;;;;;;;1740735;28;20238;-71
2022/10/30 00:17:59;;;;;;;0.00;0.00;;;;;;;;;;1740743;28;20276;-71
2022/10/30 00:18:51;;;;;;;0.00;0.00;;;;;;;;;;1740741;28;20655;-71
2022/10/30 00:19:43;;;;;;;0.00;0.00;;;;;;;;;;1740564;28;20215;-71
2022/10/30 00:20:37;;;;;;;0.00;0.00;;;;;;;;;;1740853;28;20203;-71
2022/10/30 00:21:28;;;;;;;0.00;0.00;;;;;;;;;;1740203;28;20742;-72
2022/10/30 00:22:20;;;;;;;0.00;0.00;;;;;;;;;;1740544;28;20281;-72
2022/10/30 00:23:11;;;;;;;0.00;0.00;;;;;;;;;;1740415;28;20663;-72
2022/10/30 00:24:04;;;;;;;0.00;0.00;;;;;;;;;;1740894;28;20233;-72
2022/10/30 00:24:55;;;;;;;0.00;0.00;;;;;;;;;;1740500;28;20667;-72
2022/10/30 00:25:47;;;;;;;0.00;0.00;;;;;;;;;;1740972;28;20262;-72
2022/10/30 00:26:38;;;;;;;0.00;0.00;;;;;;;;;;1740507;28;20249;-72
2022/10/30 00:27:30;;;;;;;0.00;0.00;;;;;;;;;;1740679;28;20214;-72
2022/10/30 00:28:21;;;;;;;0.00;0.00;;;;;;;;;;1740608;28;20206;-72
2022/10/30 00:29:13;;;;;;;0.00;0.00;;;;;;;;;;1740633;28;20199;-72
2022/10/30 00:30:04;;;;;;;0.00;0.00;;;;;;;;;;1740672;28;20206;-72
2022/10/30 00:30:58;;;;;;;0.00;0.00;;;;;;;;;;1740492;28;20664;-72
2022/10/30 00:31:50;;;;;;;0.00;0.00;;;;;;;;;;1740091;28;20227;-72
2022/10/30 00:32:42;;;;;;;0.00;0.00;;;;;;;;;;1740898;28;20505;-72
2022/10/30 00:33:33;;;;;;;0.00;0.00;;;;;;;;;;1740481;28;20218;-72
2022/10/30 00:34:25;;;;;;;0.00;0.00;;;;;;;;;;1740820;28;20230;-72
2022/10/30 00:35:16;;;;;;;0.00;0.00;;;;;;;;;;1740977;28;20258;-72
2022/10/30 00:36:10;;;;;;;0.00;0.00;;;;;;;;;;1740416;28;20203;-71
2022/10/30 00:37:01;;;;;;;0.00;0.00;;;;;;;;;;1740608;28;20246;-71
2022/10/30 00:37:53;;;;;;;0.00;0.00;;;;;;;;;;1740345;28;20342;-71
2022/10/30 00:38:44;;;;;;;0.00;0.00;;;;;;;;;;1747642;28;20241;-71
2022/10/30 00:39:36;;;;;;;0.00;0.00;;;;;;;;;;1740380;28;20219;-70
2022/10/30 00:40:27;;;;;;;0.00;0.00;;;;;;;;;;1741104;28;20199;-71
2022/10/30 00:41:20;;;;;;;0.00;0.00;;;;;;;;;;1740376;28;20210;-72
2022/10/30 00:42:12;;;;;;;0.00;0.00;;;;;;;;;;1740388;28;20245;-72
2022/10/30 00:43:04;;;;;;;0.00;0.00;;;;;;;;;;1740620;28;20644;-72
2022/10/30 00:43:55;;;;;;;0.00;0.00;;;;;;;;;;1740367;28;20754;-72
2022/10/30 00:44:49;;;;;;;0.00;0.00;;;;;;;;;;1740453;28;20230;-72
2022/10/30 00:45:40;;;;;;;0.00;0.00;;;;;;;;;;1740833;28;20263;-72
2022/10/30 00:46:35;;;;;;;0.00;0.00;;;;;;;;;;1740244;28;20438;-72
2022/10/30 00:47:27;;;;;;;0.00;0.00;;;;;;;;;;1740591;28;20234;-72
2022/10/30 00:48:20;;;;;;;0.00;0.00;;;;;;;;;;1740242;28;20217;-72
2022/10/30 00:49:13;;;;;;;0.00;0.00;;;;;;;;;;1740823;28;20241;-72
2022/10/30 00:50:09;;;;;;;0.00;0.00;;;;;;;;;;1740630;28;20620;-72
2022/10/30 00:51:01;;;;;;;0.00;0.00;;;;;;;;;;1740769;28;20278;-72
2022/10/30 00:51:55;;;;;;;0.00;0.00;;;;;;;;;;1739366;28;20191;-72
2022/10/30 00:52:48;;;;;;;0.00;0.00;;;;;;;;;;1740465;28;20222;-72
2022/10/30 00:53:40;;;;;;;0.00;0.00;;;;;;;;;;1740393;28;20207;-72
2022/10/30 00:54:32;;;;;;;0.00;0.00;;;;;;;;;;1740529;28;20324;-72
2022/10/30 00:55:27;;;;;;;0.00;0.00;;;;;;;;;;1747554;28;20202;-72
2022/10/30 00:56:19;;;;;;;0.00;0.00;;;;;;;;;;1747158;28;20263;-71
2022/10/30 00:57:10;;;;;;;0.00;0.00;;;;;;;;;;1747236;28;20489;-71
2022/10/30 00:58:03;;;;;;;0.00;0.00;;;;;;;;;;1747083;28;20194;-71
2022/10/30 00:58:56;;;;;;;0.00;0.00;;;;;;;;;;1747444;28;20206;-71
2022/10/30 00:59:49;;;;;;;0.00;0.00;;;;;;;;;;1746828;28;20303;-71
2022/10/30 01:00:42;;;;;;;0.00;0.00;;;;;;;;;;1747916;28;20245;-71
2022/10/30 01:01:36;;;;;;;0.00;0.00;;;;;;;;;;1747359;28;20505;-71
2022/10/30 01:02:27;;;;;;;0.00;0.00;;;;;;;;;;1746840;28;20248;-71
2022/10/30 01:03:19;;;;;;;0.00;0.00;;;;;;;;;;1747330;28;20403;-71
2022/10/30 01:04:11;;;;;;;0.00;0.00;;;;;;;;;;1747311;28;20272;-71
2022/10/30 01:05:06;;;;;;;0.00;0.00;;;;;;;;;;1747581;28;20585;-71
2022/10/30 01:06:00;;;;;;;0.00;0.00;;;;;;;;;;1747241;28;20695;-72
2022/10/30 01:06:53;;;;;;;0.00;0.00;;;;;;;;;;1746940;28;20256;-72
2022/10/30 01:07:45;;;;;;;0.00;0.00;;;;;;;;;;1747147;28;20221;-72
2022/10/30 01:08:38;;;;;;;0.00;0.00;;;;;;;;;;1747206;28;20652;-72
2022/10/30 01:09:29;;;;;;;0.00;0.00;;;;;;;;;;1746888;28;20468;-72
2022/10/30 01:10:21;;;;;;;0.00;0.00;;;;;;;;;;1740493;28;20199;-72
2022/10/30 01:11:12;;;;;;;0.00;0.00;;;;;;;;;;1739696;28;20230;-71
2022/10/30 01:12:05;;;;;;;0.00;0.00;;;;;;;;;;1740256;28;20203;-71
2022/10/30 01:12:56;;;;;;;0.00;0.00;;;;;;;;;;1740138;28;20273;-70
2022/10/30 01:13:49;;;;;;;0.00;0.00;;;;;;;;;;1740567;28;20735;-71
2022/10/30 01:14:43;;;;;;;0.00;0.00;;;;;;;;;;1739992;28;20253;-70
2022/10/30 01:15:37;;;;;;;0.00;0.00;;;;;;;;;;1740860;28;20325;-71
2022/10/30 01:16:39;;;;;;;0.00;0.00;;;;;;;;;;1739928;28;20257;-72
2022/10/30 01:17:47;;;;;;;0.00;0.00;;;;;;;;;;1740410;28;20234;-72
2022/10/30 01:18:42;;;;;;;0.00;0.00;;;;;;;;;;1740013;28;20242;-72
2022/10/30 01:19:38;;;;;;;0.00;0.00;;;;;;;;;;1740436;28;20534;-72
2022/10/30 01:20:35;;;;;;;0.00;0.00;;;;;;;;;;1740751;28;20274;-72
2022/10/30 01:21:37;;;;;;;0.00;0.00;;;;;;;;;;1740216;28;20609;-71
2022/10/30 01:22:34;;;;;;;0.00;0.00;;;;;;;;;;1740124;28;20214;-71
2022/10/30 01:23:35;;;;;;;0.00;0.00;;;;;;;;;;1739875;28;20226;-71
2022/10/30 01:24:31;;;;;;;0.00;0.00;;;;;;;;;;1740348;28;20247;-71
2022/10/30 01:25:28;;;;;;;0.00;0.00;;;;;;;;;;1740659;28;20183;-71
2022/10/30 01:26:22;;;;;;;0.00;0.00;;;;;;;;;;1740414;28;20773;-71
2022/10/30 01:27:21;;;;;;;0.00;0.00;;;;;;;;;;1740397;28;20199;-71
2022/10/30 01:28:19;;;;;;;0.00;0.00;;;;;;;;;;1740237;28;20227;-71
2022/10/30 01:29:18;;;;;;;0.00;0.00;;;;;;;;;;1740124;28;20441;-71
2022/10/30 01:30:16;;;;;;;0.00;0.00;;;;;;;;;;1740525;28;20199;-71
2022/10/30 01:31:14;;;;;;;0.00;0.00;;;;;;;;;;1740161;28;20179;-72
2022/10/30 01:32:11;;;;;;;0.00;0.00;;;;;;;;;;1740074;28;20673;-72
2022/10/30 01:33:10;;;;;;;0.00;0.00;;;;;;;;;;1739939;28;20199;-72
2022/10/30 01:34:08;;;;;;;0.00;0.00;;;;;;;;;;1740080;28;20227;-72
2022/10/30 01:35:03;;;;;;;0.00;0.00;;;;;;;;;;1740178;28;20274;-72
2022/10/30 01:35:58;;;;;;;0.00;0.00;;;;;;;;;;1740429;28;20242;-71
2022/10/30 01:36:56;;;;;;;0.00;0.00;;;;;;;;;;1740003;28;20606;-71
2022/10/30 01:37:50;;;;;;;0.00;0.00;;;;;;;;;;1740056;28;20301;-71
2022/10/30 01:38:47;;;;;;;0.00;0.00;;;;;;;;;;1740333;28;20214;-71
2022/10/30 01:39:39;;;;;;;0.00;0.00;;;;;;;;;;1739508;28;20302;-71
2022/10/30 01:40:31;;;;;;;0.00;0.00;;;;;;;;;;1740690;28;20210;-71
2022/10/30 01:41:22;;;;;;;0.00;0.00;;;;;;;;;;1739915;28;20286;-71
2022/10/30 01:42:29;;;;;;;0.00;0.00;;;;;;;;;;1740027;28;20663;-71
2022/10/30 01:43:20;;;;;;;0.00;0.00;;;;;;;;;;1739481;28;20254;-71
2022/10/30 01:44:14;;;;;;;0.00;0.00;;;;;;;;;;1740180;28;20219;-71
2022/10/30 01:45:06;;;;;;;0.00;0.00;;;;;;;;;;1740146;28;20607;-71
2022/10/30 01:46:18;;;;;;;0.00;0.00;;;;;;;;;;1740179;28;20210;-72
2022/10/30 01:47:14;;;;;;;0.00;0.00;;;;;;;;;;1734839;28;20210;-72
2022/10/30 01:48:22;;;;;;;0.00;0.00;;;;;;;;;;1740071;28;20240;-72
2022/10/30 01:49:34;;;;;;;0.00;0.00;;;;;;;;;;1740466;28;20275;-72
2022/10/30 01:50:32;;;;;;;0.00;0.00;;;;;;;;;;1735300;28;20203;-72
2022/10/30 01:51:27;;;;;;;0.00;0.00;;;;;;;;;;1739520;28;20231;-72
2022/10/30 01:52:21;;;;;;;0.00;0.00;;;;;;;;;;1739953;28;20590;-72
2022/10/30 01:53:18;;;;;;;0.00;0.00;;;;;;;;;;1739871;28;20242;-72
2022/10/30 01:54:17;;;;;;;0.00;0.00;;;;;;;;;;1740125;28;20199;-72
2022/10/30 01:55:14;;;;;;;0.00;0.00;;;;;;;;;;1740199;28;20233;-72
2022/10/30 01:56:14;;;;;;;0.00;0.00;;;;;;;;;;1739992;28;20647;-71
2022/10/30 01:57:08;;;;;;;0.00;0.00;;;;;;;;;;1740290;28;20570;-71
2022/10/30 01:58:02;;;;;;;0.00;0.00;;;;;;;;;;1739744;28;20198;-71
2022/10/30 01:58:57;;;;;;;0.00;0.00;;;;;;;;;;1740294;28;20740;-71
2022/10/30 01:59:52;;;;;;;0.00;0.00;;;;;;;;;;1739526;28;20247;-71
2022/10/30 02:00:45;;;;;;;0.00;0.00;;;;;;;;;;1740374;28;20743;-71
2022/10/30 02:01:38;;;;;;;0.00;0.00;;;;;;;;;;1740147;28;20207;-71
2022/10/30 02:02:30;;;;;;;0.00;0.00;;;;;;;;;;1739905;28;20203;-71
2022/10/30 02:03:22;;;;;;;0.00;0.00;;;;;;;;;;1740198;28;20270;-71
2022/10/30 02:04:13;;;;;;;0.00;0.00;;;;;;;;;;1740012;28;20321;-71
2022/10/30 02:05:06;;;;;;;0.00;0.00;;;;;;;;;;1740397;28;20210;-71
2022/10/30 02:05:58;;;;;;;0.00;0.00;;;;;;;;;;1739915;28;20285;-71
2022/10/30 02:06:50;;;;;;;0.00;0.00;;;;;;;;;;1739757;28;20217;-71
2022/10/30 02:07:41;;;;;;;0.00;0.00;;;;;;;;;;1740385;28;20854;-71
2022/10/30 02:08:33;;;;;;;0.05;0.05;;;;;;;;;;1739879;28;20317;-71
2022/10/30 02:09:25;;;;;;;0.00;0.00;;;;;;;;;;1740238;28;20313;-71
2022/10/30 02:10:18;;;;;;;0.00;0.00;;;;;;;;;;1740382;28;20301;-71
2022/10/30 02:11:09;;;;;;;0.00;0.00;;;;;;;;;;1739791;28;20253;-71
2022/10/30 02:12:02;;;;;;;0.00;0.00;;;;;;;;;;1739782;28;20601;-71
2022/10/30 02:12:53;;;;;;;0.00;0.00;;;;;;;;;;1739830;28;20214;-71
2022/10/30 02:13:46;;;;;;;0.00;0.00;;;;;;;;;;1740178;28;20644;-71
2022/10/30 02:14:39;;;;;;;0.00;0.00;;;;;;;;;;1739727;28;20261;-71
2022/10/30 02:15:32;;;;;;;0.00;0.00;;;;;;;;;;1740719;28;20235;-71
2022/10/30 02:16:23;;;;;;;0.00;0.00;;;;;;;;;;1739404;28;20294;-71
2022/10/30 02:17:15;;;;;;;0.00;0.00;;;;;;;;;;1740256;28;20199;-71
2022/10/30 02:18:06;;;;;;;0.00;0.00;;;;;;;;;;1739994;28;20239;-71
2022/10/30 02:18:58;;;;;;;0.00;0.00;;;;;;;;;;1740047;28;20210;-71
2022/10/30 02:19:49;;;;;;;0.00;0.00;;;;;;;;;;1740095;28;20299;-71
2022/10/30 02:20:43;;;;;;;0.00;0.00;;;;;;;;;;1740301;28;20209;-71
2022/10/30 02:21:34;;;;;;;0.00;0.00;;;;;;;;;;1739690;28;20207;-72
2022/10/30 02:22:26;;;;;;;0.00;0.00;;;;;;;;;;1740536;28;20206;-72
2022/10/30 02:23:18;;;;;;;0.00;0.00;;;;;;;;;;1741186;28;20583;-72
2022/10/30 02:24:09;;;;;;;0.00;0.00;;;;;;;;;;1741593;28;20584;-72
2022/10/30 02:25:04;;;;;;;0.00;0.00;;;;;;;;;;1741308;28;20205;-72
2022/10/30 02:25:55;;;;;;;0.00;0.00;;;;;;;;;;1741825;28;20234;-71
2022/10/30 02:26:47;;;;;;;0.00;0.00;;;;;;;;;;1741123;28;20226;-71
2022/10/30 02:27:38;;;;;;;0.00;0.00;;;;;;;;;;1741542;28;20363;-71
2022/10/30 02:28:30;;;;;;;0.00;0.00;;;;;;;;;;1741298;28;20501;-71
2022/10/30 02:29:21;;;;;;;0.00;0.00;;;;;;;;;;1741219;28;20604;-71
2022/10/30 02:30:14;;;;;;;0.00;0.00;;;;;;;;;;1741668;28;20198;-71
2022/10/30 02:31:06;;;;;;;0.00;0.00;;;;;;;;;;1741208;28;20238;-72
2022/10/30 02:31:58;;;;;;;0.00;0.00;;;;;;;;;;1741235;28;20198;-72
2022/10/30 02:32:49;;;;;;;0.00;0.00;;;;;;;;;;1741164;28;20940;-72
2022/10/30 02:33:44;;;;;;;0.00;0.00;;;;;;;;;;1741322;28;20198;-72
2022/10/30 02:34:35;;;;;;;0.00;0.00;;;;;;;;;;1741463;28;20241;-72
2022/10/30 02:35:27;;;;;;;0.00;0.00;;;;;;;;;;1741554;28;20210;-72
2022/10/30 02:36:20;;;;;;;0.00;0.00;;;;;;;;;;1741231;28;20663;-71
2022/10/30 02:37:12;;;;;;;0.00;0.00;;;;;;;;;;1741413;28;20293;-71
2022/10/30 02:38:03;;;;;;;0.00;0.00;;;;;;;;;;1741148;28;20306;-71
2022/10/30 02:38:55;;;;;;;0.00;0.00;;;;;;;;;;1741690;28;20617;-71
2022/10/30 02:39:46;;;;;;;0.00;0.00;;;;;;;;;;1741065;28;20679;-71
2022/10/30 02:40:38;;;;;;;0.00;0.00;;;;;;;;;;1742040;28;20198;-71
2022/10/30 02:41:29;;;;;;;0.00;0.00;;;;;;;;;;1741082;28;20209;-72
2022/10/30 02:42:22;;;;;;;0.00;0.00;;;;;;;;;;1741170;28;20836;-72
2022/10/30 02:43:13;;;;;;;0.00;0.00;;;;;;;;;;1741004;28;20207;-72
2022/10/30 02:44:06;;;;;;;0.00;0.00;;;;;;;;;;1741169;28;20591;-72
2022/10/30 02:44:57;;;;;;;0.00;0.00;;;;;;;;;;1741057;28;20223;-72
2022/10/30 02:45:51;;;;;;;0.00;0.00;;;;;;;;;;1741631;28;20655;-72
2022/10/30 02:46:42;;;;;;;0.00;0.00;;;;;;;;;;1741233;28;20436;-71
2022/10/30 02:47:34;;;;;;;0.00;0.00;;;;;;;;;;1741541;28;20711;-71
2022/10/30 02:48:25;;;;;;;0.00;0.00;;;;;;;;;;1740807;28;20221;-70
2022/10/30 02:49:17;;;;;;;0.00;0.00;;;;;;;;;;1741528;28;20206;-70
2022/10/30 02:50:09;;;;;;;0.00;0.00;;;;;;;;;;1741370;28;20309;-71
2022/10/30 02:51:01;;;;;;;0.00;0.00;;;;;;;;;;1741499;28;20242;-72
2022/10/30 02:51:53;;;;;;;0.00;0.00;;;;;;;;;;1740405;28;20253;-72
2022/10/30 02:52:45;;;;;;;0.00;0.00;;;;;;;;;;1741363;28;20218;-72
2022/10/30 02:53:36;;;;;;;0.00;0.00;;;;;;;;;;1740924;28;20600;-72
2022/10/30 02:54:29;;;;;;;0.00;0.00;;;;;;;;;;1741237;28;20240;-72
2022/10/30 02:55:20;;;;;;;0.00;0.00;;;;;;;;;;1741861;28;20249;-72
2022/10/30 02:56:13;;;;;;;0.00;0.00;;;;;;;;;;1741003;28;20199;-71
2022/10/30 02:57:04;;;;;;;0.00;0.00;;;;;;;;;;1741369;28;20237;-71
2022/10/30 02:57:56;;;;;;;0.00;0.00;;;;;;;;;;1740886;28;20245;-71
2022/10/30 02:58:47;;;;;;;0.00;0.00;;;;;;;;;;1741105;28;20269;-71
2022/10/30 02:59:39;;;;;;;0.00;0.00;;;;;;;;;;1740737;28;20230;-71
2022/10/30 03:00:30;;;;;;;0.00;0.00;;;;;;;;;;1741690;28;20248;-71
2022/10/30 03:01:22;;;;;;;0.00;0.00;;;;;;;;;;1740974;28;20207;-72
2022/10/30 03:02:14;;;;;;;0.00;0.00;;;;;;;;;;1740913;28;20199;-72
2022/10/30 03:03:05;;;;;;;0.00;0.00;;;;;;;;;;1741135;28;20199;-72
2022/10/30 03:03:57;;;;;;;0.00;0.00;;;;;;;;;;1741009;28;20199;-72
2022/10/30 03:04:48;;;;;;;0.00;0.00;;;;;;;;;;1740885;28;20266;-72
2022/10/30 03:05:40;;;;;;;0.00;0.00;;;;;;;;;;1741823;28;20198;-72
2022/10/30 03:06:31;;;;;;;0.00;0.00;;;;;;;;;;1740782;28;20234;-72
2022/10/30 03:07:24;;;;;;;0.00;0.00;;;;;;;;;;1741469;28;20207;-72
2022/10/30 03:08:15;;;;;;;0.00;0.00;;;;;;;;;;1740746;28;20299;-72
2022/10/30 03:09:07;;;;;;;0.00;0.00;;;;;;;;;;1741422;28;20365;-72
2022/10/30 03:09:59;;;;;;;0.00;0.00;;;;;;;;;;1741003;28;20639;-72
2022/10/30 03:10:51;;;;;;;0.00;0.00;;;;;;;;;;1741595;28;20223;-72
2022/10/30 03:11:43;;;;;;;0.00;0.00;;;;;;;;;;1741050;28;20491;-72
2022/10/30 03:12:35;;;;;;;0.00;0.00;;;;;;;;;;1740978;28;20209;-72
2022/10/30 03:13:27;;;;;;;0.00;0.00;;;;;;;;;;1740994;28;20238;-72
2022/10/30 03:14:19;;;;;;;0.00;0.00;;;;;;;;;;1741253;28;20195;-72
2022/10/30 03:15:10;;;;;;;0.00;0.00;;;;;;;;;;1741333;28;20223;-72
2022/10/30 03:16:02;;;;;;;0.00;0.00;;;;;;;;;;1741317;28;20207;-71
2022/10/30 03:16:53;;;;;;;0.00;0.00;;;;;;;;;;1740973;28;20242;-71
2022/10/30 03:17:45;;;;;;;0.00;0.00;;;;;;;;;;1741286;28;20202;-71
2022/10/30 03:18:37;;;;;;;0.00;0.00;;;;;;;;;;1740960;28;20245;-71
2022/10/30 03:19:29;;;;;;;0.00;0.00;;;;;;;;;;1741167;28;20210;-71
2022/10/30 03:20:20;;;;;;;0.00;0.00;;;;;;;;;;1741295;28;20219;-71
2022/10/30 03:21:12;;;;;;;0.00;0.00;;;;;;;;;;1740812;28;20209;-71
2022/10/30 03:22:04;;;;;;;0.00;0.00;;;;;;;;;;1740681;28;20213;-71
2022/10/30 03:22:56;;;;;;;0.00;0.00;;;;;;;;;;1740837;28;20664;-71
2022/10/30 03:23:49;;;;;;;0.00;0.00;;;;;;;;;;1741200;28;20222;-71
2022/10/30 03:24:40;;;;;;;0.00;0.00;;;;;;;;;;1740754;28;20206;-71
2022/10/30 03:25:32;;;;;;;0.00;0.00;;;;;;;;;;1741434;28;20734;-71
2022/10/30 03:26:24;;;;;;;0.00;0.00;;;;;;;;;;1740915;28;20830;-72
2022/10/30 03:27:16;;;;;;;0.00;0.00;;;;;;;;;;1740979;28;20211;-72
2022/10/30 03:28:07;;;;;;;0.00;0.00;;;;;;;;;;1741008;28;20249;-72
2022/10/30 03:28:59;;;;;;;0.00;0.00;;;;;;;;;;1740921;28;20245;-72
2022/10/30 03:29:50;;;;;;;0.00;0.00;;;;;;;;;;1740976;28;20238;-72
2022/10/30 03:30:42;;;;;;;0.00;0.00;;;;;;;;;;1741286;28;20213;-72
2022/10/30 03:31:33;;;;;;;0.00;0.00;;;;;;;;;;1740801;28;20217;-71
2022/10/30 03:32:25;;;;;;;0.00;0.00;;;;;;;;;;1740847;28;20215;-71
2022/10/30 03:33:16;;;;;;;0.00;0.00;;;;;;;;;;1740813;28;20215;-71
2022/10/30 03:34:08;;;;;;;0.00;0.00;;;;;;;;;;1740115;28;20599;-71
2022/10/30 03:34:59;;;;;;;0.00;0.00;;;;;;;;;;1740847;28;20611;-70
2022/10/30 03:35:52;;;;;;;0.00;0.00;;;;;;;;;;1741268;28;20436;-70
2022/10/30 03:36:43;;;;;;;0.00;0.00;;;;;;;;;;1740812;28;20333;-71
2022/10/30 03:37:35;;;;;;;0.00;0.00;;;;;;;;;;1741215;28;20206;-72
2022/10/30 03:38:27;;;;;;;0.00;0.00;;;;;;;;;;1740969;28;20250;-72
2022/10/30 03:39:19;;;;;;;0.00;0.00;;;;;;;;;;1740871;28;20218;-72
2022/10/30 03:40:10;;;;;;;0.00;0.00;;;;;;;;;;1747894;28;20210;-72
2022/10/30 03:41:02;;;;;;;0.00;0.00;;;;;;;;;;1747771;28;20236;-72
2022/10/30 03:41:54;;;;;;;0.00;0.00;;;;;;;;;;1747298;28;20230;-72
2022/10/30 03:42:46;;;;;;;0.00;0.00;;;;;;;;;;1747977;28;20198;-72
2022/10/30 03:43:37;;;;;;;0.00;0.00;;;;;;;;;;1747752;28;20213;-72
2022/10/30 03:44:29;;;;;;;0.00;0.00;;;;;;;;;;1747836;28;20206;-72
2022/10/30 03:45:20;;;;;;;0.00;0.00;;;;;;;;;;1748294;28;20262;-72
2022/10/30 03:46:12;;;;;;;0.00;0.00;;;;;;;;;;1747455;28;20233;-72
2022/10/30 03:47:03;;;;;;;0.00;0.00;;;;;;;;;;1747811;28;20240;-72
2022/10/30 03:47:55;;;;;;;0.00;0.00;;;;;;;;;;1747794;28;20202;-72
2022/10/30 03:48:48;;;;;;;0.00;0.00;;;;;;;;;;1737685;28;20249;-72
2022/10/30 03:49:40;;;;;;;0.00;0.00;;;;;;;;;;1740746;28;20293;-72
2022/10/30 03:50:31;;;;;;;0.00;0.00;;;;;;;;;;1741622;28;20214;-72
2022/10/30 03:51:23;;;;;;;0.00;0.00;;;;;;;;;;1740652;28;20207;-72
2022/10/30 03:52:14;;;;;;;0.00;0.00;;;;;;;;;;1740697;28;20366;-71
2022/10/30 03:53:06;;;;;;;0.00;0.00;;;;;;;;;;1740837;28;20207;-71
2022/10/30 03:53:59;;;;;;;0.00;0.00;;;;;;;;;;1740706;28;20239;-71
2022/10/30 03:54:51;;;;;;;0.00;0.00;;;;;;;;;;1744673;28;20233;-72
2022/10/30 03:55:42;;;;;;;0.00;0.00;;;;;;;;;;1748177;28;20318;-72
2022/10/30 03:56:34;;;;;;;0.00;0.00;;;;;;;;;;1747799;28;20664;-72
2022/10/30 03:57:25;;;;;;;0.00;0.00;;;;;;;;;;1747803;28;20577;-72
2022/10/30 03:58:17;;;;;;;0.00;0.00;;;;;;;;;;1747568;28;20225;-72
2022/10/30 03:59:08;;;;;;;0.00;0.00;;;;;;;;;;1747997;28;20662;-72
2022/10/30 04:00:02;;;;;;;0.00;0.00;;;;;;;;;;1747262;28;20397;-72
2022/10/30 04:00:53;;;;;;;0.00;0.00;;;;;;;;;;1748066;28;20194;-72
2022/10/30 04:01:45;;;;;;;0.00;0.00;;;;;;;;;;1747138;28;20293;-72
2022/10/30 04:02:36;;;;;;;0.00;0.00;;;;;;;;;;1747620;28;20240;-72
2022/10/30 04:03:28;;;;;;;0.00;0.00;;;;;;;;;;1747365;28;20263;-72
2022/10/30 04:04:19;;;;;;;0.00;0.00;;;;;;;;;;1747842;28;20248;-72
2022/10/30 04:05:11;;;;;;;0.00;0.00;;;;;;;;;;1747871;28;20233;-72
2022/10/30 04:06:03;;;;;;;0.00;0.00;;;;;;;;;;1747520;28;20249;-72
2022/10/30 04:06:55;;;;;;;0.00;0.00;;;;;;;;;;1747734;28;20665;-72
2022/10/30 04:07:46;;;;;;;0.00;0.00;;;;;;;;;;1747704;28;20698;-72
2022/10/30 04:08:38;;;;;;;0.00;0.00;;;;;;;;;;1747681;28;20344;-72
2022/10/30 04:09:31;;;;;;;0.00;0.00;;;;;;;;;;1747779;28;20252;-72
2022/10/30 04:10:23;;;;;;;0.00;0.00;;;;;;;;;;1748012;28;20222;-72
2022/10/30 04:11:14;;;;;;;0.00;0.00;;;;;;;;;;1747725;28;20288;-72
2022/10/30 04:12:06;;;;;;;0.00;0.00;;;;;;;;;;1747488;28;20194;-72
2022/10/30 04:13:01;;;;;;;0.00;0.00;;;;;;;;;;1747297;28;20233;-71
2022/10/30 04:13:53;;;;;;;0.00;0.00;;;;;;;;;;1747785;28;20523;-72
2022/10/30 04:14:44;;;;;;;0.00;0.00;;;;;;;;;;1746895;28;20959;-72
2022/10/30 04:15:36;;;;;;;0.00;0.00;;;;;;;;;;1748150;28;20198;-72
2022/10/30 04:16:27;;;;;;;0.00;0.00;;;;;;;;;;1747283;28;20212;-72
2022/10/30 04:17:19;;;;;;;0.00;0.00;;;;;;;;;;1747569;28;20212;-72
2022/10/30 04:18:15;;;;;;;0.00;0.00;;;;;;;;;;1747153;28;20244;-72
2022/10/30 04:19:07;;;;;;;0.00;0.00;;;;;;;;;;1747960;28;20207;-72
2022/10/30 04:19:58;;;;;;;0.00;0.00;;;;;;;;;;1747472;28;20244;-72
2022/10/30 04:20:50;;;;;;;0.00;0.00;;;;;;;;;;1748109;28;20201;-72
2022/10/30 04:21:42;;;;;;;0.00;0.00;;;;;;;;;;1747497;28;20675;-72
2022/10/30 04:22:34;;;;;;;0.00;0.00;;;;;;;;;;1747390;28;20212;-72
2022/10/30 04:23:25;;;;;;;0.00;0.00;;;;;;;;;;1747236;28;20652;-72
2022/10/30 04:24:17;;;;;;;0.00;0.00;;;;;;;;;;1747897;28;20259;-72
2022/10/30 04:25:10;;;;;;;0.00;0.00;;;;;;;;;;1747500;28;20248;-72
2022/10/30 04:26:02;;;;;;;0.00;0.00;;;;;;;;;;1747777;28;20199;-72
2022/10/30 04:26:53;;;;;;;0.00;0.00;;;;;;;;;;1740422;28;20206;-72
2022/10/30 04:27:44;;;;;;;0.00;0.00;;;;;;;;;;1740753;28;20207;-72
2022/10/30 04:28:36;;;;;;;0.00;0.00;;;;;;;;;;1740331;28;20613;-73
2022/10/30 04:29:27;;;;;;;0.00;0.00;;;;;;;;;;1738453;28;20801;-72
2022/10/30 04:30:20;;;;;;;0.00;0.00;;;;;;;;;;1741112;28;20207;-72
2022/10/30 04:31:12;;;;;;;0.00;0.00;;;;;;;;;;1740557;28;20235;-71
2022/10/30 04:32:03;;;;;;;0.00;0.00;;;;;;;;;;1737704;28;21529;-71
2022/10/30 04:32:55;;;;;;;0.00;0.00;;;;;;;;;;1735619;28;20206;-71
2022/10/30 04:33:47;;;;;;;0.00;0.00;;;;;;;;;;1740425;28;20269;-71
2022/10/30 04:34:39;;;;;;;0.00;0.00;;;;;;;;;;1740428;28;20238;-71
2022/10/30 04:35:31;;;;;;;0.00;0.00;;;;;;;;;;1740995;28;20532;-71
2022/10/30 04:36:29;;;;;;;0.00;0.00;;;;;;;;;;1740567;28;20282;-71
2022/10/30 04:37:20;;;;;;;0.00;0.00;;;;;;;;;;1740801;28;20199;-71
2022/10/30 04:38:13;;;;;;;0.00;0.00;;;;;;;;;;1744379;28;20209;-71
2022/10/30 04:39:04;;;;;;;0.00;0.00;;;;;;;;;;1747689;28;20252;-71
2022/10/30 04:39:56;;;;;;;0.00;0.00;;;;;;;;;;1737703;28;20217;-71
2022/10/30 04:40:48;;;;;;;0.00;0.00;;;;;;;;;;1741197;28;20568;-71
2022/10/30 04:41:40;;;;;;;0.00;0.00;;;;;;;;;;1740319;28;20210;-71
2022/10/30 04:42:31;;;;;;;0.00;0.00;;;;;;;;;;1740433;28;20293;-71
2022/10/30 04:43:23;;;;;;;0.00;0.00;;;;;;;;;;1740515;28;20211;-71
2022/10/30 04:44:14;;;;;;;0.00;0.00;;;;;;;;;;1740737;28;20231;-71
2022/10/30 04:45:07;;;;;;;0.00;0.00;;;;;;;;;;1740265;28;20636;-71
2022/10/30 04:45:58;;;;;;;0.00;0.00;;;;;;;;;;1740610;28;20592;-71
2022/10/30 04:46:51;;;;;;;0.00;0.00;;;;;;;;;;1740488;28;20218;-71
2022/10/30 04:47:42;;;;;;;0.00;0.00;;;;;;;;;;1740785;28;20480;-71
2022/10/30 04:48:36;;;;;;;0.00;0.00;;;;;;;;;;1740371;28;20710;-72
2022/10/30 04:49:27;;;;;;;0.00;0.00;;;;;;;;;;1740470;28;20222;-71
2022/10/30 04:50:19;;;;;;;0.00;0.00;;;;;;;;;;1740540;28;20194;-72
2022/10/30 04:51:10;;;;;;;0.00;0.00;;;;;;;;;;1740601;28;20592;-70
2022/10/30 04:52:02;;;;;;;0.00;0.00;;;;;;;;;;1739909;28;20663;-70
2022/10/30 04:52:58;;;;;;;0.00;0.00;;;;;;;;;;1740343;28;20231;-71
2022/10/30 04:53:50;;;;;;;0.00;0.00;;;;;;;;;;1740543;28;20579;-71
2022/10/30 04:54:41;;;;;;;0.00;0.00;;;;;;;;;;1740594;28;20234;-71
2022/10/30 04:55:33;;;;;;;0.00;0.00;;;;;;;;;;1740699;28;20199;-70
2022/10/30 04:56:25;;;;;;;0.00;0.00;;;;;;;;;;1740346;28;20293;-72
2022/10/30 04:57:18;;;;;;;0.00;0.00;;;;;;;;;;1740610;28;20204;-72
2022/10/30 04:58:09;;;;;;;0.00;0.00;;;;;;;;;;1740019;28;20211;-72
2022/10/30 04:59:01;;;;;;;0.00;0.00;;;;;;;;;;1740687;28;20568;-72
2022/10/30 04:59:52;;;;;;;0.00;0.00;;;;;;;;;;1739983;28;20278;-72
2022/10/30 05:00:44;;;;;;;0.00;0.00;;;;;;;;;;1740664;28;20656;-72
2022/10/30 05:01:35;;;;;;;0.00;0.00;;;;;;;;;;1740392;28;20581;-71
2022/10/30 05:02:27;;;;;;;0.00;0.00;;;;;;;;;;1740160;28;20222;-71
2022/10/30 05:03:20;;;;;;;0.00;0.00;;;;;;;;;;1740379;28;20242;-71
2022/10/30 05:04:12;;;;;;;0.00;0.00;;;;;;;;;;1740394;28;20198;-71
2022/10/30 05:05:03;;;;;;;0.00;0.00;;;;;;;;;;1740723;28;20233;-71
2022/10/30 05:05:57;;;;;;;0.00;0.00;;;;;;;;;;1740266;28;20675;-72
2022/10/30 05:06:48;;;;;;;0.00;0.00;;;;;;;;;;1740186;28;20207;-72
2022/10/30 05:07:40;;;;;;;0.00;0.00;;;;;;;;;;1740708;28;20245;-72
2022/10/30 05:08:31;;;;;;;0.00;0.00;;;;;;;;;;1739899;28;20318;-72
2022/10/30 05:09:23;;;;;;;0.00;0.00;;;;;;;;;;1740617;28;20230;-72
2022/10/30 05:10:15;;;;;;;0.00;0.00;;;;;;;;;;1740599;28;20779;-72
2022/10/30 05:11:07;;;;;;;0.00;0.00;;;;;;;;;;1740068;28;20206;-71
2022/10/30 05:12:00;;;;;;;0.00;0.00;;;;;;;;;;1740060;28;20265;-71
2022/10/30 05:12:53;;;;;;;0.00;0.00;;;;;;;;;;1740122;28;20203;-71
2022/10/30 05:13:44;;;;;;;0.00;0.00;;;;;;;;;;1740422;28;20646;-71
2022/10/30 05:14:36;;;;;;;0.00;0.00;;;;;;;;;;1740157;28;20672;-71
2022/10/30 05:15:27;;;;;;;0.00;0.00;;;;;;;;;;1744351;28;20256;-71
2022/10/30 05:16:19;;;;;;;0.00;0.00;;;;;;;;;;1746835;28;20679;-72